sensor_id;sensor_type;location;lat;lon;timestamp;P1;durP1;ratioP1;P2;durP2;ratioP2
16820;SDS011;8527;49.740;6.604;2022-12-07T00:02:00;19.58;;;8.80;;
16820;SDS011;8527;49.740;6.604;2022-12-07T00:07:05;19.83;;;9.73;;
16820;SDS011;8527;49.740;6.604;2022-12-07T00:12:07;21.25;;;9.23;;
16820;SDS011;8527;49.740;6.604;2022-12-07T00:17:05;19.55;;;9.80;;
16820;SDS011;8527;49.740;6.604;2022-12-07T00:22:04;21.73;;;8.45;;
16820;SDS011;8527;49.740;6.604;2022-12-07T00:27:02;22.27;;;10.75;;
16820;SDS011;8527;49.740;6.604;2022-12-07T00:32:06;25.73;;;9.95;;
16820;SDS011;8527;49.740;6.604;2022-12-07T00:37:04;23.42;;;10.57;;
16820;SDS011;8527;49.740;6.604;2022-12-07T00:42:03;26.92;;;11.52;;
16820;SDS011;8527;49.740;6.604;2022-12-07T00:47:07;26.08;;;11.25;;
16820;SDS011;8527;49.740;6.604;2022-12-07T00:52:06;24.17;;;10.25;;
16820;SDS011;8527;49.740;6.604;2022-12-07T00:57:05;25.90;;;10.35;;
16820;SDS011;8527;49.740;6.604;2022-12-07T01:02:07;24.52;;;11.27;;
16820;SDS011;8527;49.740;6.604;2022-12-07T01:07:06;25.02;;;11.23;;
16820;SDS011;8527;49.740;6.604;2022-12-07T01:12:04;27.90;;;13.55;;
16820;SDS011;8527;49.740;6.604;2022-12-07T01:17:03;19.23;;;9.20;;
16820;SDS011;8527;49.740;6.604;2022-12-07T01:22:05;20.70;;;8.98;;
16820;SDS011;8527;49.740;6.604;2022-12-07T01:27:06;22.23;;;9.55;;
16820;SDS011;8527;49.740;6.604;2022-12-07T01:32:05;26.98;;;11.05;;
16820;SDS011;8527;49.740;6.604;2022-12-07T01:37:07;22.42;;;9.63;;
16820;SDS011;8527;49.740;6.604;2022-12-07T01:42:07;27.42;;;10.68;;
16820;SDS011;8527;49.740;6.604;2022-12-07T01:47:10;22.63;;;9.57;;
16820;SDS011;8527;49.740;6.604;2022-12-07T01:52:18;22.67;;;10.07;;
16820;SDS011;8527;49.740;6.604;2022-12-07T01:57:20;21.55;;;10.25;;
16820;SDS011;8527;49.740;6.604;2022-12-07T02:02:20;23.90;;;10.52;;
16820;SDS011;8527;49.740;6.604;2022-12-07T02:07:24;24.95;;;10.73;;
16820;SDS011;8527;49.740;6.604;2022-12-07T02:12:24;25.65;;;10.98;;
16820;SDS011;8527;49.740;6.604;2022-12-07T02:17:24;26.65;;;11.57;;
16820;SDS011;8527;49.740;6.604;2022-12-07T02:28:12;27.33;;;11.15;;
16820;SDS011;8527;49.740;6.604;2022-12-07T02:33:24;25.77;;;11.65;;
16820;SDS011;8527;49.740;6.604;2022-12-07T02:38:27;30.15;;;12.15;;
16820;SDS011;8527;49.740;6.604;2022-12-07T02:43:33;30.27;;;13.30;;
16820;SDS011;8527;49.740;6.604;2022-12-07T02:48:38;28.40;;;11.07;;
16820;SDS011;8527;49.740;6.604;2022-12-07T02:53:40;27.77;;;11.82;;
16820;SDS011;8527;49.740;6.604;2022-12-07T02:58:46;28.30;;;12.13;;
16820;SDS011;8527;49.740;6.604;2022-12-07T03:03:55;35.13;;;12.68;;
16820;SDS011;8527;49.740;6.604;2022-12-07T03:09:01;29.02;;;11.93;;
16820;SDS011;8527;49.740;6.604;2022-12-07T03:14:13;32.55;;;13.45;;
16820;SDS011;8527;49.740;6.604;2022-12-07T03:19:23;34.83;;;12.65;;
16820;SDS011;8527;49.740;6.604;2022-12-07T03:24:33;31.67;;;12.85;;
16820;SDS011;8527;49.740;6.604;2022-12-07T03:29:37;36.25;;;14.18;;
16820;SDS011;8527;49.740;6.604;2022-12-07T03:34:48;33.95;;;14.00;;
16820;SDS011;8527;49.740;6.604;2022-12-07T03:39:57;38.20;;;14.00;;
16820;SDS011;8527;49.740;6.604;2022-12-07T03:45:02;41.60;;;13.65;;
16820;SDS011;8527;49.740;6.604;2022-12-07T03:50:09;27.75;;;12.13;;
16820;SDS011;8527;49.740;6.604;2022-12-07T03:55:17;36.97;;;13.30;;
16820;SDS011;8527;49.740;6.604;2022-12-07T04:00:22;31.58;;;12.85;;
16820;SDS011;8527;49.740;6.604;2022-12-07T04:05:24;34.47;;;13.13;;
16820;SDS011;8527;49.740;6.604;2022-12-07T04:10:25;33.55;;;12.70;;
16820;SDS011;8527;49.740;6.604;2022-12-07T04:15:24;29.50;;;12.40;;
16820;SDS011;8527;49.740;6.604;2022-12-07T04:20:28;35.63;;;12.73;;
16820;SDS011;8527;49.740;6.604;2022-12-07T04:25:26;30.42;;;12.95;;
16820;SDS011;8527;49.740;6.604;2022-12-07T04:30:27;31.50;;;12.25;;
16820;SDS011;8527;49.740;6.604;2022-12-07T04:35:31;26.48;;;11.32;;
16820;SDS011;8527;49.740;6.604;2022-12-07T04:40:32;33.00;;;12.80;;
16820;SDS011;8527;49.740;6.604;2022-12-07T04:45:33;32.42;;;12.23;;
16820;SDS011;8527;49.740;6.604;2022-12-07T04:50:47;31.75;;;12.20;;
16820;SDS011;8527;49.740;6.604;2022-12-07T04:55:46;33.88;;;13.25;;
16820;SDS011;8527;49.740;6.604;2022-12-07T05:00:47;34.47;;;14.20;;
16820;SDS011;8527;49.740;6.604;2022-12-07T05:05:48;32.53;;;14.13;;
16820;SDS011;8527;49.740;6.604;2022-12-07T05:10:48;33.58;;;14.13;;
16820;SDS011;8527;49.740;6.604;2022-12-07T05:15:47;30.42;;;12.13;;
16820;SDS011;8527;49.740;6.604;2022-12-07T05:20:50;28.98;;;12.13;;
16820;SDS011;8527;49.740;6.604;2022-12-07T05:25:49;38.42;;;14.65;;
16820;SDS011;8527;49.740;6.604;2022-12-07T05:30:47;34.08;;;13.80;;
16820;SDS011;8527;49.740;6.604;2022-12-07T05:35:46;33.33;;;13.73;;
16820;SDS011;8527;49.740;6.604;2022-12-07T05:40:49;37.95;;;13.82;;
16820;SDS011;8527;49.740;6.604;2022-12-07T05:45:58;32.60;;;12.77;;
16820;SDS011;8527;49.740;6.604;2022-12-07T05:50:57;37.17;;;14.15;;
16820;SDS011;8527;49.740;6.604;2022-12-07T05:55:58;34.58;;;13.48;;
16820;SDS011;8527;49.740;6.604;2022-12-07T06:00:57;32.20;;;12.95;;
16820;SDS011;8527;49.740;6.604;2022-12-07T06:05:55;38.03;;;15.77;;
16820;SDS011;8527;49.740;6.604;2022-12-07T06:10:53;36.83;;;15.05;;
16820;SDS011;8527;49.740;6.604;2022-12-07T06:16:09;37.70;;;14.93;;
16820;SDS011;8527;49.740;6.604;2022-12-07T06:21:08;38.53;;;15.32;;
16820;SDS011;8527;49.740;6.604;2022-12-07T06:26:13;40.85;;;14.77;;
16820;SDS011;8527;49.740;6.604;2022-12-07T06:31:14;36.40;;;14.65;;
16820;SDS011;8527;49.740;6.604;2022-12-07T06:36:13;37.15;;;15.13;;
16820;SDS011;8527;49.740;6.604;2022-12-07T06:41:11;38.97;;;15.77;;
16820;SDS011;8527;49.740;6.604;2022-12-07T06:46:15;41.50;;;15.65;;
16820;SDS011;8527;49.740;6.604;2022-12-07T06:51:16;39.80;;;15.52;;
16820;SDS011;8527;49.740;6.604;2022-12-07T06:56:17;44.72;;;17.65;;
16820;SDS011;8527;49.740;6.604;2022-12-07T07:01:18;40.10;;;14.73;;
16820;SDS011;8527;49.740;6.604;2022-12-07T07:06:18;40.88;;;15.20;;
16820;SDS011;8527;49.740;6.604;2022-12-07T07:11:18;45.58;;;16.25;;
16820;SDS011;8527;49.740;6.604;2022-12-07T07:16:23;40.50;;;17.13;;
16820;SDS011;8527;49.740;6.604;2022-12-07T07:21:21;53.30;;;17.77;;
16820;SDS011;8527;49.740;6.604;2022-12-07T07:26:24;38.15;;;15.07;;
16820;SDS011;8527;49.740;6.604;2022-12-07T07:31:25;44.28;;;16.67;;
16820;SDS011;8527;49.740;6.604;2022-12-07T07:41:31;41.80;;;14.98;;
16820;SDS011;8527;49.740;6.604;2022-12-07T07:46:35;44.55;;;16.83;;
16820;SDS011;8527;49.740;6.604;2022-12-07T07:51:33;41.28;;;15.90;;
16820;SDS011;8527;49.740;6.604;2022-12-07T07:56:32;42.10;;;16.80;;
16820;SDS011;8527;49.740;6.604;2022-12-07T08:01:31;38.70;;;15.25;;
16820;SDS011;8527;49.740;6.604;2022-12-07T08:06:32;40.90;;;15.85;;
16820;SDS011;8527;49.740;6.604;2022-12-07T08:11:30;41.00;;;15.90;;
16820;SDS011;8527;49.740;6.604;2022-12-07T08:16:32;42.15;;;16.88;;
16820;SDS011;8527;49.740;6.604;2022-12-07T08:21:37;37.25;;;15.65;;
16820;SDS011;8527;49.740;6.604;2022-12-07T08:26:35;45.00;;;17.40;;
16820;SDS011;8527;49.740;6.604;2022-12-07T08:31:34;40.25;;;16.45;;
16820;SDS011;8527;49.740;6.604;2022-12-07T08:36:38;42.33;;;15.57;;
16820;SDS011;8527;49.740;6.604;2022-12-07T08:41:42;35.38;;;14.75;;
16820;SDS011;8527;49.740;6.604;2022-12-07T08:46:46;49.22;;;16.83;;
16820;SDS011;8527;49.740;6.604;2022-12-07T08:51:51;36.53;;;14.23;;
16820;SDS011;8527;49.740;6.604;2022-12-07T08:56:55;38.70;;;15.35;;
16820;SDS011;8527;49.740;6.604;2022-12-07T09:01:55;39.67;;;15.50;;
16820;SDS011;8527;49.740;6.604;2022-12-07T09:06:59;42.13;;;15.77;;
16820;SDS011;8527;49.740;6.604;2022-12-07T09:11:59;34.63;;;14.75;;
16820;SDS011;8527;49.740;6.604;2022-12-07T09:17:04;40.30;;;16.08;;
16820;SDS011;8527;49.740;6.604;2022-12-07T09:22:06;43.95;;;16.23;;
16820;SDS011;8527;49.740;6.604;2022-12-07T09:27:05;37.38;;;15.35;;
16820;SDS011;8527;49.740;6.604;2022-12-07T09:32:04;39.17;;;16.60;;
16820;SDS011;8527;49.740;6.604;2022-12-07T09:37:13;39.95;;;16.02;;
16820;SDS011;8527;49.740;6.604;2022-12-07T09:42:19;37.75;;;15.40;;
16820;SDS011;8527;49.740;6.604;2022-12-07T09:47:25;40.15;;;15.02;;
16820;SDS011;8527;49.740;6.604;2022-12-07T09:52:34;34.50;;;13.65;;
16820;SDS011;8527;49.740;6.604;2022-12-07T09:57:33;39.67;;;15.68;;
16820;SDS011;8527;49.740;6.604;2022-12-07T10:02:34;33.22;;;14.40;;
16820;SDS011;8527;49.740;6.604;2022-12-07T10:07:37;35.72;;;13.27;;
16820;SDS011;8527;49.740;6.604;2022-12-07T10:12:44;28.45;;;11.13;;
16820;SDS011;8527;49.740;6.604;2022-12-07T10:17:54;30.92;;;13.20;;
16820;SDS011;8527;49.740;6.604;2022-12-07T10:23:01;27.50;;;11.02;;
16820;SDS011;8527;49.740;6.604;2022-12-07T10:28:02;25.65;;;11.43;;
16820;SDS011;8527;49.740;6.604;2022-12-07T10:33:15;26.77;;;10.90;;
16820;SDS011;8527;49.740;6.604;2022-12-07T10:38:29;24.33;;;10.02;;
16820;SDS011;8527;49.740;6.604;2022-12-07T10:43:28;27.25;;;10.57;;
16820;SDS011;8527;49.740;6.604;2022-12-07T10:48:31;27.38;;;9.98;;
16820;SDS011;8527;49.740;6.604;2022-12-07T10:53:47;23.25;;;10.00;;
16820;SDS011;8527;49.740;6.604;2022-12-07T10:58:55;22.10;;;9.65;;
16820;SDS011;8527;49.740;6.604;2022-12-07T11:04:10;22.00;;;9.57;;
16820;SDS011;8527;49.740;6.604;2022-12-07T11:14:56;31.05;;;9.90;;
16820;SDS011;8527;49.740;6.604;2022-12-07T11:20:19;25.85;;;8.70;;
16820;SDS011;8527;49.740;6.604;2022-12-07T11:25:38;22.35;;;9.80;;
16820;SDS011;8527;49.740;6.604;2022-12-07T11:30:47;23.00;;;9.02;;
16820;SDS011;8527;49.740;6.604;2022-12-07T11:35:55;20.75;;;8.13;;
16820;SDS011;8527;49.740;6.604;2022-12-07T11:41:05;23.40;;;9.05;;
16820;SDS011;8527;49.740;6.604;2022-12-07T11:46:16;19.75;;;7.50;;
16820;SDS011;8527;49.740;6.604;2022-12-07T11:51:15;20.38;;;9.27;;
16820;SDS011;8527;49.740;6.604;2022-12-07T11:56:25;28.58;;;9.93;;
16820;SDS011;8527;49.740;6.604;2022-12-07T12:06:45;21.48;;;7.80;;
16820;SDS011;8527;49.740;6.604;2022-12-07T12:11:51;21.40;;;7.63;;
16820;SDS011;8527;49.740;6.604;2022-12-07T12:17:17;21.02;;;7.60;;
16820;SDS011;8527;49.740;6.604;2022-12-07T12:22:33;18.35;;;7.28;;
16820;SDS011;8527;49.740;6.604;2022-12-07T12:27:40;15.20;;;7.63;;
16820;SDS011;8527;49.740;6.604;2022-12-07T12:32:46;18.95;;;7.10;;
16820;SDS011;8527;49.740;6.604;2022-12-07T12:37:47;18.83;;;6.47;;
16820;SDS011;8527;49.740;6.604;2022-12-07T12:42:55;14.45;;;6.13;;
16820;SDS011;8527;49.740;6.604;2022-12-07T12:47:56;27.13;;;9.57;;
16820;SDS011;8527;49.740;6.604;2022-12-07T12:53:02;107.18;;;45.47;;
16820;SDS011;8527;49.740;6.604;2022-12-07T13:03:32;13.40;;;5.07;;
16820;SDS011;8527;49.740;6.604;2022-12-07T13:08:33;14.70;;;5.30;;
16820;SDS011;8527;49.740;6.604;2022-12-07T13:13:37;13.55;;;6.22;;
16820;SDS011;8527;49.740;6.604;2022-12-07T13:18:38;20.13;;;6.80;;
16820;SDS011;8527;49.740;6.604;2022-12-07T13:23:52;19.40;;;7.82;;
16820;SDS011;8527;49.740;6.604;2022-12-07T13:29:05;16.92;;;8.32;;
16820;SDS011;8527;49.740;6.604;2022-12-07T13:39:27;19.20;;;5.72;;
16820;SDS011;8527;49.740;6.604;2022-12-07T13:44:39;11.50;;;5.80;;
16820;SDS011;8527;49.740;6.604;2022-12-07T13:49:46;18.92;;;5.82;;
16820;SDS011;8527;49.740;6.604;2022-12-07T13:54:47;14.02;;;5.65;;
16820;SDS011;8527;49.740;6.604;2022-12-07T13:59:49;13.90;;;6.18;;
16820;SDS011;8527;49.740;6.604;2022-12-07T14:04:48;15.57;;;6.68;;
16820;SDS011;8527;49.740;6.604;2022-12-07T14:09:53;19.83;;;6.35;;
16820;SDS011;8527;49.740;6.604;2022-12-07T14:14:59;19.70;;;6.22;;
16820;SDS011;8527;49.740;6.604;2022-12-07T14:20:01;13.02;;;5.63;;
16820;SDS011;8527;49.740;6.604;2022-12-07T14:25:09;10.27;;;4.22;;
16820;SDS011;8527;49.740;6.604;2022-12-07T14:30:19;10.27;;;4.30;;
16820;SDS011;8527;49.740;6.604;2022-12-07T14:35:20;13.05;;;5.32;;
16820;SDS011;8527;49.740;6.604;2022-12-07T14:40:22;14.48;;;5.82;;
16820;SDS011;8527;49.740;6.604;2022-12-07T14:45:25;16.58;;;6.50;;
16820;SDS011;8527;49.740;6.604;2022-12-07T14:50:23;14.35;;;6.10;;
16820;SDS011;8527;49.740;6.604;2022-12-07T14:55:23;14.60;;;4.95;;
16820;SDS011;8527;49.740;6.604;2022-12-07T15:00:26;12.68;;;5.82;;
16820;SDS011;8527;49.740;6.604;2022-12-07T15:05:25;14.63;;;4.68;;
16820;SDS011;8527;49.740;6.604;2022-12-07T15:10:27;16.02;;;5.53;;
16820;SDS011;8527;49.740;6.604;2022-12-07T15:15:36;10.93;;;4.57;;
16820;SDS011;8527;49.740;6.604;2022-12-07T15:20:34;12.40;;;4.30;;
16820;SDS011;8527;49.740;6.604;2022-12-07T15:25:33;13.00;;;5.03;;
16820;SDS011;8527;49.740;6.604;2022-12-07T15:30:31;27.83;;;9.77;;
16820;SDS011;8527;49.740;6.604;2022-12-07T15:35:32;19.05;;;8.98;;
16820;SDS011;8527;49.740;6.604;2022-12-07T15:40:31;20.95;;;9.38;;
16820;SDS011;8527;49.740;6.604;2022-12-07T15:45:32;13.10;;;6.60;;
16820;SDS011;8527;49.740;6.604;2022-12-07T15:50:32;13.95;;;6.00;;
16820;SDS011;8527;49.740;6.604;2022-12-07T15:55:31;17.52;;;6.05;;
16820;SDS011;8527;49.740;6.604;2022-12-07T16:00:31;19.60;;;7.80;;
16820;SDS011;8527;49.740;6.604;2022-12-07T16:05:33;20.90;;;9.02;;
16820;SDS011;8527;49.740;6.604;2022-12-07T16:10:34;28.63;;;12.57;;
16820;SDS011;8527;49.740;6.604;2022-12-07T16:15:38;20.17;;;11.55;;
16820;SDS011;8527;49.740;6.604;2022-12-07T16:25:39;14.27;;;7.72;;
16820;SDS011;8527;49.740;6.604;2022-12-07T16:30:37;25.45;;;14.07;;
16820;SDS011;8527;49.740;6.604;2022-12-07T16:35:37;17.48;;;8.48;;
16820;SDS011;8527;49.740;6.604;2022-12-07T16:40:38;27.42;;;8.35;;
16820;SDS011;8527;49.740;6.604;2022-12-07T16:45:40;22.15;;;7.95;;
16820;SDS011;8527;49.740;6.604;2022-12-07T16:50:41;26.95;;;11.27;;
16820;SDS011;8527;49.740;6.604;2022-12-07T16:55:46;16.60;;;7.55;;
16820;SDS011;8527;49.740;6.604;2022-12-07T17:00:45;58.97;;;27.40;;
16820;SDS011;8527;49.740;6.604;2022-12-07T17:05:48;37.50;;;13.27;;
16820;SDS011;8527;49.740;6.604;2022-12-07T17:10:52;30.13;;;13.02;;
16820;SDS011;8527;49.740;6.604;2022-12-07T17:15:55;23.15;;;11.13;;
16820;SDS011;8527;49.740;6.604;2022-12-07T17:21:01;20.92;;;9.20;;
16820;SDS011;8527;49.740;6.604;2022-12-07T17:26:06;26.55;;;10.65;;
16820;SDS011;8527;49.740;6.604;2022-12-07T17:31:06;36.67;;;14.35;;
16820;SDS011;8527;49.740;6.604;2022-12-07T17:36:10;40.67;;;17.90;;
16820;SDS011;8527;49.740;6.604;2022-12-07T17:41:13;42.13;;;20.40;;
16820;SDS011;8527;49.740;6.604;2022-12-07T17:46:33;52.88;;;21.33;;
16820;SDS011;8527;49.740;6.604;2022-12-07T17:51:34;123.45;;;42.03;;
16820;SDS011;8527;49.740;6.604;2022-12-07T17:56:47;43.65;;;19.40;;
16820;SDS011;8527;49.740;6.604;2022-12-07T18:01:46;34.40;;;13.80;;
16820;SDS011;8527;49.740;6.604;2022-12-07T18:06:44;39.33;;;15.50;;
16820;SDS011;8527;49.740;6.604;2022-12-07T18:11:49;45.47;;;17.63;;
16820;SDS011;8527;49.740;6.604;2022-12-07T18:16:48;31.10;;;15.18;;
16820;SDS011;8527;49.740;6.604;2022-12-07T18:21:46;26.40;;;12.15;;
16820;SDS011;8527;49.740;6.604;2022-12-07T18:26:50;40.53;;;15.05;;
16820;SDS011;8527;49.740;6.604;2022-12-07T18:31:49;39.42;;;15.00;;
16820;SDS011;8527;49.740;6.604;2022-12-07T18:36:48;38.22;;;16.60;;
16820;SDS011;8527;49.740;6.604;2022-12-07T18:41:50;36.85;;;18.98;;
16820;SDS011;8527;49.740;6.604;2022-12-07T18:46:48;39.03;;;14.57;;
16820;SDS011;8527;49.740;6.604;2022-12-07T18:51:53;31.85;;;13.05;;
16820;SDS011;8527;49.740;6.604;2022-12-07T18:56:56;59.45;;;25.08;;
16820;SDS011;8527;49.740;6.604;2022-12-07T19:01:57;68.95;;;28.08;;
16820;SDS011;8527;49.740;6.604;2022-12-07T19:07:02;56.63;;;24.77;;
16820;SDS011;8527;49.740;6.604;2022-12-07T19:12:04;62.95;;;24.63;;
16820;SDS011;8527;49.740;6.604;2022-12-07T19:17:03;47.40;;;21.20;;
16820;SDS011;8527;49.740;6.604;2022-12-07T19:22:03;32.55;;;15.70;;
16820;SDS011;8527;49.740;6.604;2022-12-07T19:27:06;44.85;;;15.07;;
16820;SDS011;8527;49.740;6.604;2022-12-07T19:32:05;39.53;;;14.63;;
16820;SDS011;8527;49.740;6.604;2022-12-07T19:37:05;34.60;;;15.45;;
16820;SDS011;8527;49.740;6.604;2022-12-07T19:42:09;47.58;;;22.25;;
16820;SDS011;8527;49.740;6.604;2022-12-07T19:47:08;39.63;;;17.17;;
16820;SDS011;8527;49.740;6.604;2022-12-07T19:52:10;43.97;;;16.08;;
16820;SDS011;8527;49.740;6.604;2022-12-07T19:57:13;42.97;;;18.52;;
16820;SDS011;8527;49.740;6.604;2022-12-07T20:02:12;46.90;;;19.08;;
16820;SDS011;8527;49.740;6.604;2022-12-07T20:07:11;43.95;;;18.73;;
16820;SDS011;8527;49.740;6.604;2022-12-07T20:12:13;37.45;;;16.20;;
16820;SDS011;8527;49.740;6.604;2022-12-07T20:17:24;40.03;;;16.48;;
16820;SDS011;8527;49.740;6.604;2022-12-07T20:22:23;56.72;;;20.35;;
16820;SDS011;8527;49.740;6.604;2022-12-07T20:27:24;52.45;;;17.80;;
16820;SDS011;8527;49.740;6.604;2022-12-07T20:32:22;43.75;;;15.80;;
16820;SDS011;8527;49.740;6.604;2022-12-07T20:37:21;34.95;;;15.02;;
16820;SDS011;8527;49.740;6.604;2022-12-07T20:42:24;39.33;;;15.18;;
16820;SDS011;8527;49.740;6.604;2022-12-07T20:47:35;39.30;;;14.68;;
16820;SDS011;8527;49.740;6.604;2022-12-07T20:52:36;41.58;;;16.05;;
16820;SDS011;8527;49.740;6.604;2022-12-07T20:57:37;48.13;;;18.38;;
16820;SDS011;8527;49.740;6.604;2022-12-07T21:02:37;53.10;;;19.20;;
16820;SDS011;8527;49.740;6.604;2022-12-07T21:07:36;58.83;;;19.85;;
16820;SDS011;8527;49.740;6.604;2022-12-07T21:12:40;51.85;;;20.60;;
16820;SDS011;8527;49.740;6.604;2022-12-07T21:17:38;50.95;;;19.65;;
16820;SDS011;8527;49.740;6.604;2022-12-07T21:22:37;54.95;;;20.75;;
16820;SDS011;8527;49.740;6.604;2022-12-07T21:27:40;48.45;;;18.55;;
16820;SDS011;8527;49.740;6.604;2022-12-07T21:32:42;47.83;;;19.42;;
16820;SDS011;8527;49.740;6.604;2022-12-07T21:37:40;51.03;;;19.35;;
16820;SDS011;8527;49.740;6.604;2022-12-07T21:42:49;56.03;;;22.70;;
16820;SDS011;8527;49.740;6.604;2022-12-07T21:47:53;66.90;;;25.52;;
16820;SDS011;8527;49.740;6.604;2022-12-07T21:52:51;50.97;;;19.58;;
16820;SDS011;8527;49.740;6.604;2022-12-07T21:57:52;56.78;;;21.73;;
16820;SDS011;8527;49.740;6.604;2022-12-07T22:02:51;45.55;;;17.00;;
16820;SDS011;8527;49.740;6.604;2022-12-07T22:07:49;51.92;;;18.48;;
16820;SDS011;8527;49.740;6.604;2022-12-07T22:12:48;50.60;;;18.75;;
16820;SDS011;8527;49.740;6.604;2022-12-07T22:17:49;49.60;;;17.05;;
16820;SDS011;8527;49.740;6.604;2022-12-07T22:22:47;47.50;;;17.52;;
16820;SDS011;8527;49.740;6.604;2022-12-07T22:27:47;44.50;;;17.08;;
16820;SDS011;8527;49.740;6.604;2022-12-07T22:32:45;47.53;;;16.45;;
16820;SDS011;8527;49.740;6.604;2022-12-07T22:37:47;47.17;;;15.23;;
16820;SDS011;8527;49.740;6.604;2022-12-07T22:42:46;49.55;;;16.48;;
16820;SDS011;8527;49.740;6.604;2022-12-07T22:47:45;40.08;;;15.38;;
16820;SDS011;8527;49.740;6.604;2022-12-07T22:52:46;43.10;;;15.95;;
16820;SDS011;8527;49.740;6.604;2022-12-07T22:57:50;44.40;;;15.35;;
16820;SDS011;8527;49.740;6.604;2022-12-07T23:02:48;39.42;;;15.20;;
16820;SDS011;8527;49.740;6.604;2022-12-07T23:07:49;44.45;;;15.68;;
16820;SDS011;8527;49.740;6.604;2022-12-07T23:12:50;52.50;;;15.77;;
16820;SDS011;8527;49.740;6.604;2022-12-07T23:18:09;43.30;;;15.05;;
16820;SDS011;8527;49.740;6.604;2022-12-07T23:23:13;41.95;;;14.70;;
16820;SDS011;8527;49.740;6.604;2022-12-07T23:28:12;50.85;;;16.08;;
16820;SDS011;8527;49.740;6.604;2022-12-07T23:33:15;38.92;;;14.63;;
16820;SDS011;8527;49.740;6.604;2022-12-07T23:38:16;49.15;;;17.13;;
16820;SDS011;8527;49.740;6.604;2022-12-07T23:43:15;48.03;;;15.32;;
16820;SDS011;8527;49.740;6.604;2022-12-07T23:48:16;45.15;;;15.45;;
16820;SDS011;8527;49.740;6.604;2022-12-07T23:53:25;51.20;;;15.15;;
16820;SDS011;8527;49.740;6.604;2022-12-07T23:58:25;63.50;;;18.50;;
